M I D A S
Marine Information and Data Acquisition System
Tripno 582 of the Zeeleeuw from 2003-09-03 06:16:07 to 2003-09-03 13:32:51
Back to CruiseResearch ActivitiesStationsMapUnderway DataData graphs

EquipmentUnitsComments
TimeDGPSUTC
LatitudeDGPSDM.mWGS84
LongitudeDGPSDM.mWGS84
SpeedMeteo Stationm/sRelative wind speed
DirectionMeteo StationdegRelative wind direction
TemperatureMeteo Stationdeg CelciusAir temperature
PressureMeteo StationPaAtmospheric pressure
HumidityMeteo Station%Relative humidity
Missing or incorrect values are displayed as -999
Metereological data collected by the RV Zeeleeuw from 2003-09-03 06:16:07 to 2003-09-03 13:32:51
Time Latitude Longitude Speed Direction Temperature Pressure Humidity
2003-09-03 06:17 51°13.88 2°55.59 2.2 2 14.7 102940 72
2003-09-03 06:18 51°14.01 2°55.51 2.4 11 14.7 102940 72
2003-09-03 06:19 51°14.13 2°55.42 2.6 5 14.7 102940 72
2003-09-03 06:20 51°14.26 2°55.27 3.8 359 14.7 102940 72
2003-09-03 06:21 51°14.38 2°55.04 4.3 1 14.7 102940 72
2003-09-03 06:22 51°14.54 2°54.88 4.4 16 14.8 102940 72
2003-09-03 06:23 51°14.72 2°54.72 4.7 19 14.8 102940 72
2003-09-03 06:24 51°14.91 2°54.57 5 16 14.8 102940 72
2003-09-03 06:25 51°15.09 2°54.4 4.4 14 14.9 102950 73
2003-09-03 06:26 51°15.28 2°54.24 4.5 18 14.9 102940 72
2003-09-03 06:27 51°15.47 2°54.07 5.1 14 14.9 102940 72
2003-09-03 06:28 51°15.67 2°53.89 5.3 20 15 102940 72
2003-09-03 06:29 51°15.89 2°53.74 5.5 18 15 102940 71
2003-09-03 06:30 51°16.1 2°53.59 5.4 27 15.1 102950 72
2003-09-03 06:31 51°16.31 2°53.43 5.3 22 15.2 102940 72
2003-09-03 06:32 51°16.52 2°53.27 5.1 18 15.1 102940 70
2003-09-03 06:33 51°16.75 2°53.08 4.7 18 15.2 102940 71
2003-09-03 06:34 51°16.95 2°52.9 4.8 13 15.3 102950 72
2003-09-03 06:35 51°17.14 2°52.68 4.5 18 15.3 102950 71
2003-09-03 06:36 51°17.34 2°52.44 4.2 15 15.3 102950 71
2003-09-03 06:37 51°17.52 2°52.22 4.5 10 15.4 102960 70
2003-09-03 06:38 51°17.7 2°51.99 4.5 15 15.4 102950 69
2003-09-03 06:39 51°17.89 2°51.76 4.3 9 15.5 102950 69
2003-09-03 06:40 51°18.07 2°51.54 4.7 12 15.6 102960 67
2003-09-03 06:41 51°18.26 2°51.31 4.8 10 15.7 102960 68
2003-09-03 06:42 51°18.44 2°51.09 4.6 5 15.7 102950 67
2003-09-03 06:43 51°18.63 2°50.87 5.1 14 15.7 102960 67
2003-09-03 06:44 51°18.81 2°50.64 4.6 10 15.8 102960 67
2003-09-03 06:45 51°19 2°50.42 4 4 15.8 102960 65
2003-09-03 06:46 51°19.18 2°50.19 5 3 15.9 102960 66
2003-09-03 06:47 51°19.36 2°49.96 5.3 5 15.9 102960 66
2003-09-03 06:48 51°19.54 2°49.73 5.2 6 15.9 102970 65
2003-09-03 06:49 51°19.73 2°49.51 5.1 6 16 102960 66
2003-09-03 06:50 51°19.91 2°49.29 5.3 5 16 102970 65
2003-09-03 06:51 51°20.1 2°49.07 4.8 346 16 102960 64
2003-09-03 06:52 51°20.28 2°48.85 4.6 357 16 102960 65
2003-09-03 06:53 51°20.47 2°48.63 5.4 354 16.1 102960 66
2003-09-03 06:54 51°20.65 2°48.4 5.3 357 16.2 102970 66
2003-09-03 06:55 51°20.82 2°48.17 5 5 16.2 102970 67
2003-09-03 06:56 51°21 2°47.93 4.9 353 16.2 102960 67
2003-09-03 06:57 51°21.17 2°47.69 5.1 354 16.2 102960 66
2003-09-03 06:58 51°21.34 2°47.45 6.1 2 16.3 102970 66
2003-09-03 06:59 51°21.51 2°47.2 4.8 351 16.2 102960 65
2003-09-03 07:00 51°21.69 2°46.98 5 357 16.3 102970 66
2003-09-03 07:01 51°21.88 2°46.75 5.7 356 16.3 102960 66
2003-09-03 07:02 51°22.06 2°46.53 4.9 358 16.3 102970 65
2003-09-03 07:03 51°22.25 2°46.31 5.2 352 16.3 102970 66
2003-09-03 07:04 51°22.45 2°46.06 5.2 359 16.4 102970 65
2003-09-03 07:05 51°22.63 2°45.83 4.4 356 16.3 102970 64
2003-09-03 07:06 51°22.82 2°45.59 5.5 343 16.4 102960 65
2003-09-03 07:07 51°23.01 2°45.36 6.1 339 16.4 102970 65
2003-09-03 07:08 51°23.18 2°45.14 6 354 16.5 102970 66
2003-09-03 07:09 51°23.36 2°44.92 5.9 349 16.5 102970 66
2003-09-03 07:10 51°23.55 2°44.7 6.2 359 16.5 102970 65
2003-09-03 07:11 51°23.74 2°44.46 4.9 350 16.4 102970 65
2003-09-03 07:12 51°23.92 2°44.24 5.3 352 16.5 102980 67
2003-09-03 07:13 51°24.11 2°44.02 5.3 353 16.4 102970 65
2003-09-03 07:14 51°24.3 2°43.79 5.7 343 16.5 102980 65
2003-09-03 07:15 51°24.48 2°43.57 5.9 347 16.5 102960 65
2003-09-03 07:16 51°24.66 2°43.35 4.4 347 16.4 102980 65
2003-09-03 07:17 51°24.85 2°43.12 5 357 16.5 102980 65
2003-09-03 07:18 51°25.03 2°42.9 6.4 345 16.5 102970 66
2003-09-03 07:19 51°25.23 2°42.67 6 3 16.5 102970 65
2003-09-03 07:20 51°25.41 2°42.45 6 347 16.6 102980 66
2003-09-03 07:21 51°25.61 2°42.22 6.3 356 16.7 102980 67
2003-09-03 07:22 51°25.79 2°42 8 349 16.7 102970 65
2003-09-03 07:23 51°25.98 2°41.77 5.7 348 16.7 102970 63
2003-09-03 07:24 51°26.17 2°41.54 6.6 352 16.7 102970 63
2003-09-03 07:25 51°26.35 2°41.32 6.2 360 16.8 102980 63
2003-09-03 07:26 51°26.54 2°41.09 7.2 19 16.8 102980 63
2003-09-03 07:27 51°26.73 2°40.87 11.4 16 16.8 102960 64
2003-09-03 07:28 51°26.91 2°40.66 9.7 34 16.8 102960 61
2003-09-03 07:29 51°27.05 2°40.44 4.1 68 16.8 102970 62
2003-09-03 07:30 51°27.04 2°40.3 3.1 107 16.9 102990 63
2003-09-03 07:31 51°27.02 2°40.19 2.5 119 16.9 102990 61
2003-09-03 07:32 51°26.99 2°40.08 2.5 108 16.9 102990 62
2003-09-03 07:33 51°26.97 2°40.02 2.8 140 16.8 102990 61
2003-09-03 07:34 51°26.98 2°40.01 3.4 139 16.8 102990 61
2003-09-03 07:35 51°26.99 2°39.99 4 122 16.8 103000 61
2003-09-03 07:36 51°27 2°39.98 4.1 132 16.8 103000 61
2003-09-03 07:37 51°27.01 2°39.98 3.3 114 16.8 103000 60
2003-09-03 07:38 51°27.03 2°39.97 3.2 104 16.8 103000 60
2003-09-03 07:39 51°27.05 2°39.95 3.8 65 16.8 103000 60
2003-09-03 07:40 51°27.13 2°39.93 5.5 4 16.8 103000 60
2003-09-03 07:41 51°27.17 2°40.04 4.9 39 16.8 103000 60
2003-09-03 07:42 51°27.16 2°40.19 5.1 43 16.9 103000 61
2003-09-03 07:43 51°27.1 2°40.28 4.8 301 17 103000 61
2003-09-03 07:44 51°27.02 2°40.3 3.3 268 17 103000 61
2003-09-03 07:45 51°26.95 2°40.25 1.7 239 16.9 103000 60
2003-09-03 07:46 51°26.9 2°40.17 1.5 207 16.9 103010 61
2003-09-03 07:47 51°26.87 2°40.1 3.8 210 17 103000 63
2003-09-03 07:48 51°26.84 2°40.03 2.2 196 17 103010 62
2003-09-03 07:49 51°26.81 2°39.97 1.6 187 17 103010 62
2003-09-03 07:50 51°26.79 2°39.91 0.3 260 17 103010 63
2003-09-03 07:51 51°26.78 2°39.85 1 234 17 103000 63
2003-09-03 07:52 51°26.76 2°39.81 0.7 234 17.1 103010 65
2003-09-03 07:53 51°26.74 2°39.76 2 151 17.1 103000 64
2003-09-03 07:54 51°26.72 2°39.71 2.5 119 17 103000 64
2003-09-03 07:56 51°26.7 2°39.65 3.2 138 17 103000 64
2003-09-03 07:56 51°26.69 2°39.59 3.9 127 17 103010 64
2003-09-03 07:58 51°26.68 2°39.52 1.4 101 16.9 103010 64
2003-09-03 07:59 51°26.66 2°39.46 3.3 59 16.8 103020 63
2003-09-03 08:00 51°26.64 2°39.41 1.6 14 16.8 103010 63
2003-09-03 08:01 51°26.62 2°39.36 2.1 74 16.7 103020 63
2003-09-03 08:02 51°26.6 2°39.31 1.8 109 16.8 103020 63
2003-09-03 08:03 51°26.57 2°39.26 0.9 70 16.8 103020 63
2003-09-03 08:04 51°26.55 2°39.22 2 102 16.8 103020 63
2003-09-03 08:05 51°26.52 2°39.18 0.1 118 16.8 103020 63
2003-09-03 08:06 51°26.49 2°39.14 1.3 101 16.8 103020 63
2003-09-03 08:07 51°26.46 2°39.1 1.1 72 16.8 103030 62
2003-09-03 08:08 51°26.43 2°39.06 0.6 114 16.8 103030 62
2003-09-03 08:09 51°26.4 2°39.01 1.7 71 16.8 103030 62
2003-09-03 08:10 51°26.38 2°38.95 1.2 344 16.8 103040 62
2003-09-03 08:11 51°26.36 2°38.89 1.3 285 16.8 103040 62
2003-09-03 08:12 51°26.33 2°38.85 1.7 317 16.8 103030 62
2003-09-03 08:13 51°26.29 2°38.82 1.2 344 16.8 103030 62
2003-09-03 08:14 51°26.26 2°38.78 1.2 319 16.9 103040 62
2003-09-03 08:15 51°26.23 2°38.73 1.7 291 16.9 103040 62
2003-09-03 08:16 51°26.21 2°38.68 1.2 296 17 103030 62
2003-09-03 08:17 51°26.19 2°38.62 1.1 224 17 103040 62
2003-09-03 08:18 51°26.18 2°38.56 1.4 205 17 103040 61
2003-09-03 08:19 51°26.18 2°38.5 1.6 164 17 103040 62
2003-09-03 08:20 51°26.18 2°38.46 1.5 134 17 103040 61
2003-09-03 08:21 51°26.19 2°38.42 0.5 166 16.9 103040 61
2003-09-03 08:22 51°26.21 2°38.37 1.4 173 17 103040 62
2003-09-03 08:23 51°26.22 2°38.32 2 149 17 103040 61
2003-09-03 08:24 51°26.24 2°38.27 1.3 120 16.9 103040 61
2003-09-03 08:25 51°26.26 2°38.16 1.6 31 17 103040 61
2003-09-03 08:26 51°26.29 2°38.02 1.7 38 17 103040 62
2003-09-03 08:27 51°26.31 2°37.94 1.4 16 17.1 103040 61
2003-09-03 08:28 51°26.32 2°37.87 1.2 27 16.9 103040 62
2003-09-03 08:29 51°26.33 2°37.82 1.1 359 16.9 103050 61
2003-09-03 08:30 51°26.32 2°37.72 2.8 29 16.9 103050 61
2003-09-03 08:31 51°26.22 2°37.47 5.4 5 16.9 103050 61
2003-09-03 08:32 51°26.09 2°37.22 7.5   17 103040 61
2003-09-03 08:33 51°25.94 2°36.99 7 10 17 103050 63
2003-09-03 08:34 51°25.79 2°36.77 7.6 6 16.9 103050 64
2003-09-03 08:35 51°25.61 2°36.52 7.8 13 16.9 103040 64
2003-09-03 08:36 51°25.42 2°36.34 7 17 16.9 103050 63
2003-09-03 08:37 51°25.21 2°36.24 9.3 12 16.8 103050 64
2003-09-03 08:38 51°25.02 2°36.15 10.4 5 16.8 103040 64
2003-09-03 08:39 51°24.83 2°35.97 10.2 3 16.8 103050 64
2003-09-03 08:41 51°24.65 2°35.77 9.9 8 16.7 103040 64
2003-09-03 08:42 51°24.48 2°35.57 10.8 9 16.7 103040 64
2003-09-03 08:43 51°24.31 2°35.39 9.4 9 16.7 103040 64
2003-09-03 08:44 51°24.14 2°35.21 9.9 11 16.7 103050 64
2003-09-03 08:45 51°23.97 2°34.97 9 3 16.6 103040 65
2003-09-03 08:46 51°23.83 2°34.72 9.5 8 16.6 103050 65
2003-09-03 08:47 51°23.66 2°34.42 9.2 2 16.6 103050 64
2003-09-03 08:48 51°23.52 2°34.16 9 1 16.6 103060 65
2003-09-03 08:49 51°23.38 2°33.9 9.6 11 16.6 103060 64
2003-09-03 08:50 51°23.24 2°33.64 9.7 6 16.6 103060 65
2003-09-03 08:51 51°23.09 2°33.38 8.6 3 16.6 103050 65
2003-09-03 08:52 51°22.93 2°33.09 9.7 4 16.6 103060 65
2003-09-03 08:53 51°22.79 2°32.83 10.2 357 16.7 103060 65
2003-09-03 08:54 51°22.64 2°32.57 10.7 358 16.7 103060 65
2003-09-03 08:55 51°22.48 2°32.28 10.4 6 16.6 103060 65
2003-09-03 08:56 51°22.34 2°32.03 9.8 358 16.6 103060 64
2003-09-03 08:57 51°22.19 2°31.77 8.7 360 16.6 103060 64
2003-09-03 08:58 51°22.04 2°31.5 9.8   16.6 103070 64
2003-09-03 08:59 51°21.87 2°31.2 9.9 2 16.6 103070 65
2003-09-03 09:35 51°17.85 2°27.66 4.2 353 16.7 103090 65
2003-09-03 09:36 51°17.81 2°27.56 4.3 4 16.7 103080 66
2003-09-03 09:37 51°17.77 2°27.48 3.4 9 16.7 103090 65
2003-09-03 09:38 51°17.73 2°27.43 3.3 22 16.8 103090 66
2003-09-03 09:39 51°17.7 2°27.4 3.4 18 16.7 103090 65
2003-09-03 09:40 51°17.67 2°27.36 3 10 16.7 103080 65
2003-09-03 09:41 51°17.64 2°27.32 2.7 2 16.7 103090 65
2003-09-03 09:42 51°17.62 2°27.29 2.7 16 16.7 103080 65
2003-09-03 09:43 51°17.59 2°27.25 3.1 10 16.8 103080 65
2003-09-03 09:44 51°17.56 2°27.21 3.1 353 16.8 103090 65
2003-09-03 09:45 51°17.53 2°27.17 3.6 25 16.8 103090 66
2003-09-03 09:46 51°17.5 2°27.12 3.5 17 16.9 103090 66
2003-09-03 09:47 51°17.47 2°27.08 2.9 22 16.9 103090 65
2003-09-03 09:48 51°17.44 2°27.04 2.2 22 16.8 103090 64
2003-09-03 09:49 51°17.41 2°27 2.6 14 16.8 103090 65
2003-09-03 09:50 51°17.38 2°26.96 2.3 14 16.8 103090 65
2003-09-03 09:51 51°17.35 2°26.91 3.4 16 16.8 103090 65
2003-09-03 09:52 51°17.32 2°26.87 3 16 16.9 103090 64
2003-09-03 09:53 51°17.3 2°26.83 2.6 13 16.9 103090 64
2003-09-03 09:54 51°17.27 2°26.79 3.1 11 16.8 103090 64
2003-09-03 09:55 51°17.24 2°26.74 3.9 4 16.9 103100 65
2003-09-03 09:56 51°17.22 2°26.69 2.8 360 16.9 103090 65
2003-09-03 09:57 51°17.2 2°26.65 2.4 332 17 103100 65
2003-09-03 09:58 51°17.2 2°26.6 2.2 330 17 103090 64
2003-09-03 09:59 51°17.19 2°26.55 2.7 227 17.2 103090 64
2003-09-03 10:00 51°17.19 2°26.5 2.6 323 17.3 103100 64
2003-09-03 10:01 51°17.19 2°26.45 2.9 295 17.4 103090 64
2003-09-03 10:02 51°17.2 2°26.39 2.5 263 17.4 103090 62
2003-09-03 10:03 51°17.22 2°26.35 0.8 279 17.3 103090 63
2003-09-03 10:04 51°17.31 2°26.3 2.7 351 17.4 103090 63
2003-09-03 10:05 51°17.46 2°26.32 3.5 7 17.4 103090 62
2003-09-03 10:06 51°17.66 2°26.41 5 4 17.3 103090 62
2003-09-03 10:07 51°17.84 2°26.58 5.3 10 17.3 103090 63
2003-09-03 10:08 51°18.01 2°26.78 5.8 6 17.3 103090 64
2003-09-03 10:09 51°18.16 2°27 5.8 15 17.3 103090 64
2003-09-03 10:10 51°18.31 2°27.24 5.1 16 17.3 103090 64
2003-09-03 10:11 51°18.45 2°27.49 5.6 10 17.2 103090 64
2003-09-03 10:12 51°18.58 2°27.74 5.4 6 17.1 103090 64
2003-09-03 10:13 51°18.68 2°28.06 5.4 20 17.1 103090 64
2003-09-03 10:14 51°18.77 2°28.37 6.1 20 17.1 103090 64
2003-09-03 10:15 51°18.85 2°28.68 5.6 24 17.1 103090 64
2003-09-03 10:16 51°18.87 2°29 6.2 17 17.1 103090 65
2003-09-03 10:17 51°18.85 2°29.3 6.3 30 17.1 103090 63
2003-09-03 10:18 51°18.8 2°29.6 7.2 13 17.1 103090 64
2003-09-03 10:19 51°18.67 2°29.85 6.7 18 17 103090 63
2003-09-03 10:20 51°18.51 2°30.08 7.5 26 17.1 103080 63
2003-09-03 10:21 51°18.34 2°30.36 7.3 18 17.2 103080 63
2003-09-03 10:22 51°18.17 2°30.62 8.5 18 17.1 103090 62
2003-09-03 10:23 51°18.02 2°30.87 7.4 13 17.1 103090 62
2003-09-03 10:24 51°17.87 2°31.11 7.2 14 17.1 103090 62
2003-09-03 10:25 51°17.72 2°31.36 8.1 14 17.2 103080 62
2003-09-03 10:27 51°17.56 2°31.61 6.3 14 17.1 103090 62
2003-09-03 10:28 51°17.41 2°31.89 7.4 19 17.2 103090 62
2003-09-03 10:29 51°17.27 2°32.13 7.7 17 17.2 103090 62
2003-09-03 10:30 51°17.12 2°32.4 7.7 23 17.2 103080 62
2003-09-03 10:31 51°16.98 2°32.66 6.9 20 17.2 103090 62
2003-09-03 10:32 51°16.81 2°32.92 7 17 17.2 103090 63
2003-09-03 10:33 51°16.66 2°33.17 8.3 17 17.2 103090 63
2003-09-03 10:34 51°16.5 2°33.4 8.7 9 17.2 103090 61
2003-09-03 10:35 51°16.34 2°33.61 6.4 9 17.1 103090 57
2003-09-03 10:36 51°16.18 2°33.81 6.4 13 17.1 103100 58
2003-09-03 10:37 51°16.02 2°34.01 7.7 12 17.2 103090 58
2003-09-03 10:38 51°15.84 2°34.24 7.8 7 17.2 103090 58
2003-09-03 10:39 51°15.65 2°34.47 8.3 8 17.2 103090 58
2003-09-03 10:40 51°15.49 2°34.71 7.6 13 17.2 103090 58
2003-09-03 10:41 51°15.33 2°34.96 7.4 10 17.2 103090 58
2003-09-03 10:42 51°15.17 2°35.2 7.1 9 17.2 103090 57
2003-09-03 10:43 51°15.01 2°35.44 7.1 13 17.2 103090 58
2003-09-03 10:44 51°14.86 2°35.69 7.3 9 17.2 103090 57
2003-09-03 10:45 51°14.7 2°35.94 7 10 17.2 103090 57
2003-09-03 10:46 51°14.55 2°36.18 6.2 9 17.2 103090 57
2003-09-03 10:47 51°14.4 2°36.42 6.6 2 17.2 103100 57
2003-09-03 10:48 51°14.24 2°36.65 7 7 17.2 103090 57
2003-09-03 10:49 51°14.08 2°36.89 6.6   17.2 103090 57
2003-09-03 10:50 51°13.93 2°37.12 7.1 3 17.2 103090 57
2003-09-03 10:51 51°13.77 2°37.36 6.7 2 17.2 103090 55
2003-09-03 10:52 51°13.58 2°37.5 6.3 9 17.2 103090 55
2003-09-03 10:53 51°13.37 2°37.55 5.6 1 17.2 103090 56
2003-09-03 10:54 51°13.14 2°37.57 6.8 11 17.2 103090 56
2003-09-03 10:55 51°12.91 2°37.55 7.4 11 17.2 103090 56
2003-09-03 10:56 51°12.67 2°37.47 6.5 13 17.2 103090 55
2003-09-03 10:57 51°12.42 2°37.37 6.4 7 17.2 103100 55
2003-09-03 10:58 51°12.19 2°37.3 6.7 10 17.2 103090 56
2003-09-03 10:59 51°11.95 2°37.22 6.3 5 17.3 103090 57
2003-09-03 11:00 51°11.71 2°37.14 6.8 4 17.3 103090 57
2003-09-03 11:01 51°11.48 2°37.06 6.5 10 17.2 103090 57
2003-09-03 11:02 51°11.24 2°36.99 7.2 16 17.2 103090 56
2003-09-03 11:03 51°11 2°36.91 5.7 16 17.2 103090 56
2003-09-03 11:04 51°10.77 2°36.85 6 13 17.3 103090 57
2003-09-03 11:05 51°10.54 2°36.84 5.2 4 17.3 103090 56
2003-09-03 11:06 51°10.32 2°36.86 5.3 15 17.4 103090 56
2003-09-03 11:07 51°10.14 2°37.05 6.1 355 17.4 103090 56
2003-09-03 11:08 51°10.08 2°37.37 6.9 352 17.4 103080 55
2003-09-03 11:09 51°10.07 2°37.69 7.2 353 17.5 103080 55
2003-09-03 11:10 51°10.06 2°38.02 6.3 350 17.6 103080 55
2003-09-03 11:11 51°10.05 2°38.35 6.7 348 17.6 103080 57
2003-09-03 11:12 51°10.04 2°38.67 6.5 346 17.6 103080 57
2003-09-03 11:13 51°10.03 2°39 6.6 342 17.6 103080 58
2003-09-03 11:14 51°10.02 2°39.31 6.5 344 17.7 103070 58
2003-09-03 11:15 51°10.01 2°39.6 5.8 332 17.7 103070 57
2003-09-03 11:16 51°10.01 2°39.82 3.8 324 17.7 103070 57
2003-09-03 11:17 51°10 2°39.97 2.7 41 17.7 103080 57
2003-09-03 11:18 51°9.99 2°40 2.2 239 17.8 103080 56
2003-09-03 11:19 51°9.97 2°39.99 1.8 201 17.7 103080 56
2003-09-03 11:20 51°9.95 2°39.97 1.7 203 17.5 103080 56
2003-09-03 11:21 51°9.93 2°39.95 1.7 217 17.5 103080 57
2003-09-03 11:22 51°9.88 2°39.95 1 212 17.5 103080 57
2003-09-03 11:23 51°9.8 2°39.97 0.4 245 17.6 103080 57
2003-09-03 11:24 51°9.72 2°39.96 1.2 134 17.7 103080 57
2003-09-03 11:25 51°9.66 2°39.9 2.3 98 17.9 103080 56
2003-09-03 11:26 51°9.62 2°39.82 2.2 108 17.9 103070 56
2003-09-03 11:27 51°9.59 2°39.74 2.5 102 17.8 103070 55
2003-09-03 11:28 51°9.56 2°39.66 2.9 95 17.7 103070 57
2003-09-03 11:29 51°9.54 2°39.58 3.2 96 17.6 103070 59
2003-09-03 11:30 51°9.53 2°39.5 3 67 17.5 103070 57
2003-09-03 11:31 51°9.53 2°39.43 3.1 85 17.5 103070 57
2003-09-03 11:32 51°9.52 2°39.36 3.1 70 17.3 103070 57
2003-09-03 11:33 51°9.51 2°39.29 3 71 17.3 103070 59
2003-09-03 11:34 51°9.5 2°39.22 2.5 77 17.2 103070 59
2003-09-03 11:35 51°9.49 2°39.15 2.8 105 17.2 103070 60
2003-09-03 11:36 51°9.48 2°39.09 3.2 98 17.2 103070 59
2003-09-03 11:37 51°9.46 2°39.02 3 99 17.2 103070 58
2003-09-03 11:38 51°9.45 2°38.95 3.4 105 17.4 103070 59
2003-09-03 11:39 51°9.43 2°38.89 3.1 100 17.4 103080 58
2003-09-03 11:40 51°9.42 2°38.82 3.3 102 17.5 103070 60
2003-09-03 11:41 51°9.4 2°38.75 2.8 106 17.5 103080 59
2003-09-03 11:42 51°9.38 2°38.68 2.2 103 17.5 103080 58
2003-09-03 11:43 51°9.37 2°38.62 2.5 92 17.5 103080 58
2003-09-03 11:44 51°9.35 2°38.55 2.6 86 17.6 103080 59
2003-09-03 11:45 51°9.34 2°38.49 2.8 104 17.5 103080 58
2003-09-03 11:46 51°9.32 2°38.42 3.8 93 17.4 103080 57
2003-09-03 11:47 51°9.3 2°38.36 2.1 85 17.4 103080 56
2003-09-03 11:48 51°9.28 2°38.29 3.2 119 17.4 103080 58
2003-09-03 11:49 51°9.26 2°38.23 3.1 102 17.4 103080 58
2003-09-03 11:50 51°9.24 2°38.16 2.5 97 17.4 103080 58
2003-09-03 11:51 51°9.22 2°38.1 2.7 120 17.4 103080 58
2003-09-03 11:52 51°9.21 2°38.04 2.7 100 17.4 103080 58
2003-09-03 11:53 51°9.2 2°37.98 3.6 88 17.4 103080 58
2003-09-03 11:54 51°9.19 2°37.92 2.9 86 17.4 103080 58
2003-09-03 11:55 51°9.18 2°37.85 3.2 86 17.4 103080 58
2003-09-03 11:56 51°9.17 2°37.77 2.5 75 17.3 103080 58
2003-09-03 11:57 51°9.17 2°37.7 3.4 74 17.3 103080 59
2003-09-03 11:58 51°9.19 2°37.6 5.5 22 17.2 103070 59
2003-09-03 11:59 51°9.26 2°37.58 4.5 349 17.3 103070 59
2003-09-03 12:00 51°9.31 2°37.59 4.2 343 17.4 103070 58
2003-09-03 12:01 51°9.34 2°37.62 4.4 340 17.6 103070 58
2003-09-03 12:02 51°9.38 2°37.64 4.1 346 17.7 103070 56
2003-09-03 12:03 51°9.41 2°37.67 3.1 319 17.8 103080 57
2003-09-03 12:04 51°9.43 2°37.72 4.4 323 17.9 103070 56
2003-09-03 12:05 51°9.44 2°37.79 3.6 316 18 103070 56
2003-09-03 12:06 51°9.45 2°37.85 3.3 320 18 103070 56
2003-09-03 12:07 51°9.46 2°37.92 3.8 314 18 103080 56
2003-09-03 12:08 51°9.47 2°37.99 4.9 325 18 103070 57
2003-09-03 12:09 51°9.48 2°38.06 3.5 310 18 103070 56
2003-09-03 12:10 51°9.48 2°38.13 3.8 305 18 103070 57
2003-09-03 12:11 51°9.47 2°38.21 3.4 307 17.9 103070 56
2003-09-03 12:12 51°9.46 2°38.28 3.5 313 17.9 103070 57
2003-09-03 12:13 51°9.44 2°38.36 3.9 227 17.9 103070 56
2003-09-03 12:14 51°9.43 2°38.43 4.1 315 18 103070 56
2003-09-03 12:15 51°9.43 2°38.5 4.2 325 18.1 103060 55
2003-09-03 12:16 51°9.43 2°38.58 4.1 320 18.1 103070 55
2003-09-03 12:17 51°9.43 2°38.65 3.5 331 18.1 103070 55
2003-09-03 12:18 51°9.45 2°38.72 4.5 332 18.1 103070 57
2003-09-03 12:19 51°9.46 2°38.79 4.3 333 18.1 103070 56
2003-09-03 12:20 51°9.48 2°38.85 4 322 18.1 103070 55
2003-09-03 12:21 51°9.48 2°38.92 4.3 323 18.1 103070 55
2003-09-03 12:22 51°9.49 2°39 4.3 320 18.1 103070 55
2003-09-03 12:23 51°9.51 2°39.07 4.7 326 18.1 103080 55
2003-09-03 12:24 51°9.52 2°39.13 4.6 338 18.1 103070 56
2003-09-03 12:25 51°9.55 2°39.19 4.2 338 18.1 103070 56
2003-09-03 12:26 51°9.57 2°39.25 4.2 337 18.1 103070 55
2003-09-03 12:27 51°9.6 2°39.31 5 328 18.2 103070 57
2003-09-03 12:28 51°9.62 2°39.38 4.8 40 18.2 103070 56
2003-09-03 12:29 51°9.62 2°39.45 3.9 312 18.1 103070 55
2003-09-03 12:30 51°9.62 2°39.53 4.2 303 18.1 103070 57
2003-09-03 12:31 51°9.61 2°39.6 3.5 300 18 103080 56
2003-09-03 12:32 51°9.59 2°39.67 4.1 302 17.9 103070 56
2003-09-03 12:33 51°9.58 2°39.74 4.1 321 18 103070 57
2003-09-03 12:34 51°9.58 2°39.8 4.3 297 18 103070 57
2003-09-03 12:35 51°9.56 2°39.85 3.4 282 18 103070 58
2003-09-03 12:36 51°9.54 2°39.88 3.1 285 18 103070 58
2003-09-03 12:37 51°9.53 2°39.9 3.6 283 18 103070 59
2003-09-03 12:38 51°9.51 2°39.92 3.5 282 17.9 103070 57
2003-09-03 12:39 51°9.5 2°39.93 3.4 279 17.9 103070 57
2003-09-03 12:40 51°9.49 2°39.94 3.6 288 17.8 103080 57
2003-09-03 12:41 51°9.49 2°39.97 5.3 336 17.8 103070 58
2003-09-03 12:42 51°9.57 2°40.17 8.8 351 17.9 103060 57
2003-09-03 12:43 51°9.7 2°40.4 9.6 351 17.9 103060 58
2003-09-03 12:44 51°9.83 2°40.66 9.7 348 17.9 103060 57
2003-09-03 12:45 51°9.95 2°40.93 10 349 17.9 103060 58
2003-09-03 12:46 51°10.04 2°41.2 9.1 350 17.9 103060 58
2003-09-03 12:47 51°10.15 2°41.5 10 355 17.9 103060 59
2003-09-03 12:48 51°10.25 2°41.78 10.6 351 17.8 103060 58
2003-09-03 12:49 51°10.35 2°42.06 10.9 351 17.8 103050 60
2003-09-03 12:50 51°10.45 2°42.35 10.2 346 17.8 103050 58
2003-09-03 12:51 51°10.55 2°42.65 10.5 345 17.8 103060 58
2003-09-03 12:52 51°10.64 2°42.92 9.7 347 17.8 103050 59
2003-09-03 12:53 51°10.74 2°43.21 9.9 352 17.7 103050 59
2003-09-03 12:54 51°10.83 2°43.49 10.2 346 17.7 103060 59
2003-09-03 12:55 51°10.92 2°43.78 9.6 348 17.7 103050 58
2003-09-03 12:56 51°11.02 2°44.06 9.8 347 17.7 103050 61
2003-09-03 12:57 51°11.11 2°44.35 10.1 348 17.7 103060 60
2003-09-03 12:58 51°11.21 2°44.64 10.7 346 17.8 103050 60
2003-09-03 12:59 51°11.3 2°44.93 9.8 350 17.7 103050 60
2003-09-03 13:00 51°11.4 2°45.21 9.1 344 17.7 103060 59
2003-09-03 13:01 51°11.51 2°45.49 10.2 344 17.7 103050 60
2003-09-03 13:02 51°11.62 2°45.76 11.2 345 17.7 103060 59
2003-09-03 13:03 51°11.72 2°46.04 10.4 345 17.7 103050 60
2003-09-03 13:04 51°11.82 2°46.32 10.6 344 17.7 103050 61
2003-09-03 13:05 51°11.91 2°46.61 10.5 347 17.7 103050 60
2003-09-03 13:06 51°12 2°46.89 10 342 17.7 103060 59
2003-09-03 13:07 51°12.09 2°47.18 10.1 346 17.7 103050 61
2003-09-03 13:08 51°12.18 2°47.46 10.5 342 17.7 103050 61
2003-09-03 13:09 51°12.28 2°47.75 11.2 348 17.7 103050 60
2003-09-03 13:10 51°12.37 2°48.04 11 345 17.7 103050 60
2003-09-03 13:11 51°12.46 2°48.34 9.9 347 17.7 103050 61
2003-09-03 13:12 51°12.57 2°48.62 10.7 345 17.7 103050 59
2003-09-03 13:13 51°12.67 2°48.91 11 346 17.7 103050 62
2003-09-03 13:14 51°12.77 2°49.2 11.2 348 17.7 103050 61
2003-09-03 13:15 51°12.88 2°49.48 11.6 346 17.7 103040 60
2003-09-03 13:16 51°12.98 2°49.77 10.7 349 17.7 103050 61
2003-09-03 13:17 51°13.08 2°50.06 10.3 345 17.7 103050 60
2003-09-03 13:18 51°13.19 2°50.35 9.9 346 17.7 103050 60
2003-09-03 13:19 51°13.29 2°50.64 11.7 349 17.7 103050 61
2003-09-03 13:20 51°13.39 2°50.93 10.8 343 17.7 103040 60
2003-09-03 13:21 51°13.48 2°51.23 10.4 349 17.7 103050 60
2003-09-03 13:22 51°13.58 2°51.52 10.9 347 17.7 103050 60
2003-09-03 13:23 51°13.68 2°51.82 11.2 344 17.7 103050 61
2003-09-03 13:24 51°13.77 2°52.12 10.9 343 17.7 103040 61
2003-09-03 13:25 51°13.85 2°52.42 10.4 345 17.7 103040 61
2003-09-03 13:26 51°13.93 2°52.72 11.1 346 17.7 103050 61
2003-09-03 13:27 51°14.02 2°53.02 10.6 348 17.7 103050 62
2003-09-03 13:28 51°14.1 2°53.32 10.5 344 17.7 103040 61
2003-09-03 13:29 51°14.18 2°53.63 10.9 344 17.7 103040 61
2003-09-03 13:30 51°14.26 2°53.93 10.1 345 17.7 103040 60
2003-09-03 13:31 51°14.32 2°54.25 10.6 344 17.7 103040 62
2003-09-03 13:32 51°14.35 2°54.58 9.5 341 17.7 103040 61